sensor_id;sensor_type;location;lat;lon;timestamp;temperature;humidity
71514;DHT22;59335;46.652;21.272;2022-08-21T00:00:38;30.45;46.56
71514;DHT22;59335;46.652;21.272;2022-08-21T00:03:45;30.45;46.62
71514;DHT22;59335;46.652;21.272;2022-08-21T00:06:51;30.42;46.56
71514;DHT22;59335;46.652;21.272;2022-08-21T00:09:55;30.41;46.52
71514;DHT22;59335;46.652;21.272;2022-08-21T00:12:57;30.42;46.61
71514;DHT22;59335;46.652;21.272;2022-08-21T00:16:01;30.44;46.58
71514;DHT22;59335;46.652;21.272;2022-08-21T00:19:04;30.39;46.47
71514;DHT22;59335;46.652;21.272;2022-08-21T00:22:08;30.41;46.48
71514;DHT22;59335;46.652;21.272;2022-08-21T00:25:12;30.42;46.54
71514;DHT22;59335;46.652;21.272;2022-08-21T00:28:15;30.45;46.47
71514;DHT22;59335;46.652;21.272;2022-08-21T00:31:18;30.44;46.52
71514;DHT22;59335;46.652;21.272;2022-08-21T00:34:21;30.39;46.50
71514;DHT22;59335;46.652;21.272;2022-08-21T00:37:24;30.42;46.36
71514;DHT22;59335;46.652;21.272;2022-08-21T00:40:40;30.41;46.38
71514;DHT22;59335;46.652;21.272;2022-08-21T00:43:43;30.42;46.33
71514;DHT22;59335;46.652;21.272;2022-08-21T00:46:46;30.41;46.42
71514;DHT22;59335;46.652;21.272;2022-08-21T00:49:48;30.42;46.45
71514;DHT22;59335;46.652;21.272;2022-08-21T00:52:51;30.44;46.40
71514;DHT22;59335;46.652;21.272;2022-08-21T00:55:55;30.44;46.40
71514;DHT22;59335;46.652;21.272;2022-08-21T00:58:59;30.39;46.43
71514;DHT22;59335;46.652;21.272;2022-08-21T01:02:04;30.39;46.53
71514;DHT22;59335;46.652;21.272;2022-08-21T01:05:08;30.41;46.55
71514;DHT22;59335;46.652;21.272;2022-08-21T01:08:11;30.42;46.50
71514;DHT22;59335;46.652;21.272;2022-08-21T01:11:15;30.39;46.49
71514;DHT22;59335;46.652;21.272;2022-08-21T01:14:18;30.42;46.47
71514;DHT22;59335;46.652;21.272;2022-08-21T01:17:22;30.39;46.52
71514;DHT22;59335;46.652;21.272;2022-08-21T01:20:25;30.41;46.60
71514;DHT22;59335;46.652;21.272;2022-08-21T01:23:36;30.41;46.56
71514;DHT22;59335;46.652;21.272;2022-08-21T01:26:41;30.38;46.49
71514;DHT22;59335;46.652;21.272;2022-08-21T01:29:53;30.42;46.48
71514;DHT22;59335;46.652;21.272;2022-08-21T01:32:57;30.42;46.50
71514;DHT22;59335;46.652;21.272;2022-08-21T01:36:00;30.41;46.46
71514;DHT22;59335;46.652;21.272;2022-08-21T01:39:04;30.34;46.91
71514;DHT22;59335;46.652;21.272;2022-08-21T01:42:08;30.27;47.51
71514;DHT22;59335;46.652;21.272;2022-08-21T01:45:12;30.20;48.61
71514;DHT22;59335;46.652;21.272;2022-08-21T01:48:15;30.10;49.27
71514;DHT22;59335;46.652;21.272;2022-08-21T01:51:18;30.06;49.57
71514;DHT22;59335;46.652;21.272;2022-08-21T01:54:21;30.01;49.65
71514;DHT22;59335;46.652;21.272;2022-08-21T01:57:24;29.96;49.57
71514;DHT22;59335;46.652;21.272;2022-08-21T02:00:27;29.99;49.47
71514;DHT22;59335;46.652;21.272;2022-08-21T02:03:30;29.94;49.74
71514;DHT22;59335;46.652;21.272;2022-08-21T02:06:38;29.91;49.91
71514;DHT22;59335;46.652;21.272;2022-08-21T02:09:41;29.93;49.96
71514;DHT22;59335;46.652;21.272;2022-08-21T02:12:45;29.96;49.85
71514;DHT22;59335;46.652;21.272;2022-08-21T02:15:48;29.96;49.72
71514;DHT22;59335;46.652;21.272;2022-08-21T02:18:51;30.03;49.13
71514;DHT22;59335;46.652;21.272;2022-08-21T02:21:54;30.10;48.72
71514;DHT22;59335;46.652;21.272;2022-08-21T02:24:57;30.16;48.13
71514;DHT22;59335;46.652;21.272;2022-08-21T02:28:05;30.18;47.96
71514;DHT22;59335;46.652;21.272;2022-08-21T02:31:08;30.23;47.91
71514;DHT22;59335;46.652;21.272;2022-08-21T02:34:10;30.23;47.90
71514;DHT22;59335;46.652;21.272;2022-08-21T02:37:13;30.21;47.94
71514;DHT22;59335;46.652;21.272;2022-08-21T02:40:18;30.27;47.80
71514;DHT22;59335;46.652;21.272;2022-08-21T02:43:23;30.27;47.85
71514;DHT22;59335;46.652;21.272;2022-08-21T02:46:26;30.25;47.78
71514;DHT22;59335;46.652;21.272;2022-08-21T02:49:29;30.24;47.76
71514;DHT22;59335;46.652;21.272;2022-08-21T02:52:32;30.25;47.74
71514;DHT22;59335;46.652;21.272;2022-08-21T02:55:36;30.25;47.65
71514;DHT22;59335;46.652;21.272;2022-08-21T02:58:43;30.25;47.63
71514;DHT22;59335;46.652;21.272;2022-08-21T03:01:46;30.27;47.60
71514;DHT22;59335;46.652;21.272;2022-08-21T03:04:49;30.27;47.58
71514;DHT22;59335;46.652;21.272;2022-08-21T03:07:52;30.29;47.52
71514;DHT22;59335;46.652;21.272;2022-08-21T03:10:55;30.29;47.51
71514;DHT22;59335;46.652;21.272;2022-08-21T03:13:57;30.28;47.50
71514;DHT22;59335;46.652;21.272;2022-08-21T03:17:00;30.29;47.51
71514;DHT22;59335;46.652;21.272;2022-08-21T03:20:05;30.29;47.50
71514;DHT22;59335;46.652;21.272;2022-08-21T03:23:09;30.29;47.38
71514;DHT22;59335;46.652;21.272;2022-08-21T03:26:17;30.29;47.43
71514;DHT22;59335;46.652;21.272;2022-08-21T03:29:21;30.31;47.32
71514;DHT22;59335;46.652;21.272;2022-08-21T03:32:23;30.31;47.34
71514;DHT22;59335;46.652;21.272;2022-08-21T03:35:27;30.27;47.46
71514;DHT22;59335;46.652;21.272;2022-08-21T03:38:31;30.29;47.35
71514;DHT22;59335;46.652;21.272;2022-08-21T03:41:33;30.29;47.43
71514;DHT22;59335;46.652;21.272;2022-08-21T03:44:37;30.27;47.44
71514;DHT22;59335;46.652;21.272;2022-08-21T03:47:58;30.31;47.40
71514;DHT22;59335;46.652;21.272;2022-08-21T03:51:02;30.25;47.38
71514;DHT22;59335;46.652;21.272;2022-08-21T03:54:05;30.32;47.30
71514;DHT22;59335;46.652;21.272;2022-08-21T03:57:08;30.27;47.33
71514;DHT22;59335;46.652;21.272;2022-08-21T04:00:13;30.29;47.32
71514;DHT22;59335;46.652;21.272;2022-08-21T04:03:17;30.27;47.32
71514;DHT22;59335;46.652;21.272;2022-08-21T04:06:19;30.29;47.34
71514;DHT22;59335;46.652;21.272;2022-08-21T04:09:23;30.24;47.32
71514;DHT22;59335;46.652;21.272;2022-08-21T04:12:25;30.31;47.26
71514;DHT22;59335;46.652;21.272;2022-08-21T04:15:28;30.28;47.24
71514;DHT22;59335;46.652;21.272;2022-08-21T04:18:31;30.29;47.21
71514;DHT22;59335;46.652;21.272;2022-08-21T04:21:35;30.32;47.18
71514;DHT22;59335;46.652;21.272;2022-08-21T04:24:40;30.29;47.23
71514;DHT22;59335;46.652;21.272;2022-08-21T04:27:42;30.28;47.19
71514;DHT22;59335;46.652;21.272;2022-08-21T04:30:45;30.27;47.21
71514;DHT22;59335;46.652;21.272;2022-08-21T04:33:48;30.28;47.22
71514;DHT22;59335;46.652;21.272;2022-08-21T04:36:50;30.28;47.14
71514;DHT22;59335;46.652;21.272;2022-08-21T04:39:53;30.29;47.16
71514;DHT22;59335;46.652;21.272;2022-08-21T04:43:02;30.28;47.26
71514;DHT22;59335;46.652;21.272;2022-08-21T04:46:05;30.29;47.20
71514;DHT22;59335;46.652;21.272;2022-08-21T04:49:08;30.27;47.29
71514;DHT22;59335;46.652;21.272;2022-08-21T04:52:12;30.29;47.23
71514;DHT22;59335;46.652;21.272;2022-08-21T04:55:17;30.27;47.30
71514;DHT22;59335;46.652;21.272;2022-08-21T04:58:21;30.27;47.23
71514;DHT22;59335;46.652;21.272;2022-08-21T05:01:27;30.29;47.16
71514;DHT22;59335;46.652;21.272;2022-08-21T05:04:33;30.29;47.16
71514;DHT22;59335;46.652;21.272;2022-08-21T05:07:36;30.28;47.18
71514;DHT22;59335;46.652;21.272;2022-08-21T05:10:44;30.28;47.20
71514;DHT22;59335;46.652;21.272;2022-08-21T05:13:47;30.31;47.19
71514;DHT22;59335;46.652;21.272;2022-08-21T05:16:57;30.25;47.24
71514;DHT22;59335;46.652;21.272;2022-08-21T05:20:01;30.27;47.27
71514;DHT22;59335;46.652;21.272;2022-08-21T05:23:08;30.31;47.38
71514;DHT22;59335;46.652;21.272;2022-08-21T05:26:12;30.28;47.40
71514;DHT22;59335;46.652;21.272;2022-08-21T05:29:20;30.28;47.27
71514;DHT22;59335;46.652;21.272;2022-08-21T05:32:23;30.28;47.21
71514;DHT22;59335;46.652;21.272;2022-08-21T05:35:27;30.28;47.29
71514;DHT22;59335;46.652;21.272;2022-08-21T05:38:31;30.28;47.21
71514;DHT22;59335;46.652;21.272;2022-08-21T05:41:33;30.23;47.49
71514;DHT22;59335;46.652;21.272;2022-08-21T05:44:36;30.23;47.67
71514;DHT22;59335;46.652;21.272;2022-08-21T05:47:39;30.25;47.69
71514;DHT22;59335;46.652;21.272;2022-08-21T05:50:43;30.24;47.74
71514;DHT22;59335;46.652;21.272;2022-08-21T05:53:46;30.23;47.79
71514;DHT22;59335;46.652;21.272;2022-08-21T05:56:50;30.21;47.87
71514;DHT22;59335;46.652;21.272;2022-08-21T05:59:52;30.21;47.82
71514;DHT22;59335;46.652;21.272;2022-08-21T06:02:55;30.23;47.82
71514;DHT22;59335;46.652;21.272;2022-08-21T06:05:58;30.23;47.85
71514;DHT22;59335;46.652;21.272;2022-08-21T06:09:01;30.21;47.86
71514;DHT22;59335;46.652;21.272;2022-08-21T06:12:09;30.18;47.87
71514;DHT22;59335;46.652;21.272;2022-08-21T06:15:11;30.24;47.90
71514;DHT22;59335;46.652;21.272;2022-08-21T06:18:14;30.21;47.77
71514;DHT22;59335;46.652;21.272;2022-08-21T06:21:17;30.23;47.90
71514;DHT22;59335;46.652;21.272;2022-08-21T06:24:20;30.21;47.83
71514;DHT22;59335;46.652;21.272;2022-08-21T06:27:23;30.23;47.88
71514;DHT22;59335;46.652;21.272;2022-08-21T06:30:28;30.24;47.81
71514;DHT22;59335;46.652;21.272;2022-08-21T06:33:31;30.25;47.84
71514;DHT22;59335;46.652;21.272;2022-08-21T06:36:34;30.27;47.66
71514;DHT22;59335;46.652;21.272;2022-08-21T06:39:36;30.28;47.76
71514;DHT22;59335;46.652;21.272;2022-08-21T06:42:46;30.25;47.71
71514;DHT22;59335;46.652;21.272;2022-08-21T06:45:50;30.25;47.81
71514;DHT22;59335;46.652;21.272;2022-08-21T06:48:53;30.25;47.76
71514;DHT22;59335;46.652;21.272;2022-08-21T06:51:56;30.25;47.75
71514;DHT22;59335;46.652;21.272;2022-08-21T06:54:58;30.25;47.78
71514;DHT22;59335;46.652;21.272;2022-08-21T06:58:02;30.29;47.76
71514;DHT22;59335;46.652;21.272;2022-08-21T07:01:05;30.31;47.65
71514;DHT22;59335;46.652;21.272;2022-08-21T07:04:08;30.28;47.56
71514;DHT22;59335;46.652;21.272;2022-08-21T07:07:10;30.31;47.46
71514;DHT22;59335;46.652;21.272;2022-08-21T07:10:14;30.31;47.36
71514;DHT22;59335;46.652;21.272;2022-08-21T07:13:24;30.31;47.42
71514;DHT22;59335;46.652;21.272;2022-08-21T07:16:27;30.32;47.33
71514;DHT22;59335;46.652;21.272;2022-08-21T07:19:29;30.31;47.25
71514;DHT22;59335;46.652;21.272;2022-08-21T07:22:32;30.32;47.19
71514;DHT22;59335;46.652;21.272;2022-08-21T07:25:36;30.34;47.23
71514;DHT22;59335;46.652;21.272;2022-08-21T07:28:38;30.38;47.14
71514;DHT22;59335;46.652;21.272;2022-08-21T07:31:41;30.34;47.19
71514;DHT22;59335;46.652;21.272;2022-08-21T07:34:44;30.35;47.15
71514;DHT22;59335;46.652;21.272;2022-08-21T07:37:47;30.35;47.12
71514;DHT22;59335;46.652;21.272;2022-08-21T07:40:52;30.34;47.13
71514;DHT22;59335;46.652;21.272;2022-08-21T07:43:56;30.37;47.17
71514;DHT22;59335;46.652;21.272;2022-08-21T07:47:00;30.35;47.15
71514;DHT22;59335;46.652;21.272;2022-08-21T07:50:04;30.34;47.37
71514;DHT22;59335;46.652;21.272;2022-08-21T07:53:07;30.34;47.29
71514;DHT22;59335;46.652;21.272;2022-08-21T07:56:10;30.35;47.31
71514;DHT22;59335;46.652;21.272;2022-08-21T07:59:13;30.35;47.34
71514;DHT22;59335;46.652;21.272;2022-08-21T08:02:24;30.37;47.31
71514;DHT22;59335;46.652;21.272;2022-08-21T08:05:29;30.37;47.25
71514;DHT22;59335;46.652;21.272;2022-08-21T08:08:32;30.37;47.11
71514;DHT22;59335;46.652;21.272;2022-08-21T08:11:37;30.41;47.14
71514;DHT22;59335;46.652;21.272;2022-08-21T08:14:41;30.44;47.08
71514;DHT22;59335;46.652;21.272;2022-08-21T08:17:44;30.39;47.05
71514;DHT22;59335;46.652;21.272;2022-08-21T08:20:46;30.41;47.03
71514;DHT22;59335;46.652;21.272;2022-08-21T08:23:49;30.42;47.01
71514;DHT22;59335;46.652;21.272;2022-08-21T08:26:52;30.41;46.99
71514;DHT22;59335;46.652;21.272;2022-08-21T08:29:56;30.42;46.99
71514;DHT22;59335;46.652;21.272;2022-08-21T08:32:59;30.44;46.99
71514;DHT22;59335;46.652;21.272;2022-08-21T08:36:02;30.44;46.95
71514;DHT22;59335;46.652;21.272;2022-08-21T08:39:09;30.44;46.95
71514;DHT22;59335;46.652;21.272;2022-08-21T08:45:37;30.47;46.80
71514;DHT22;59335;46.652;21.272;2022-08-21T08:52:01;30.44;46.78
71514;DHT22;59335;46.652;21.272;2022-08-21T08:58:27;30.44;46.79
71514;DHT22;59335;46.652;21.272;2022-08-21T09:01:32;30.42;46.76
71514;DHT22;59335;46.652;21.272;2022-08-21T09:04:40;30.44;46.87
71514;DHT22;59335;46.652;21.272;2022-08-21T09:11:02;30.44;46.89
71514;DHT22;59335;46.652;21.272;2022-08-21T09:14:31;30.41;46.88
71514;DHT22;59335;46.652;21.272;2022-08-21T14:03:44;30.37;47.27
71514;DHT22;59335;46.652;21.272;2022-08-21T14:06:48;30.35;47.39
71514;DHT22;59335;46.652;21.272;2022-08-21T14:09:52;30.32;47.67
71514;DHT22;59335;46.652;21.272;2022-08-21T14:12:59;30.34;47.93
71514;DHT22;59335;46.652;21.272;2022-08-21T14:16:11;30.29;47.99
71514;DHT22;59335;46.652;21.272;2022-08-21T14:23:00;30.28;48.17
71514;DHT22;59335;46.652;21.272;2022-08-21T14:26:04;30.32;47.94
71514;DHT22;59335;46.652;21.272;2022-08-21T14:29:08;30.31;47.87
71514;DHT22;59335;46.652;21.272;2022-08-21T14:32:16;30.29;47.68
71514;DHT22;59335;46.652;21.272;2022-08-21T14:35:26;30.29;47.87
71514;DHT22;59335;46.652;21.272;2022-08-21T14:38:29;30.28;48.07
71514;DHT22;59335;46.652;21.272;2022-08-21T14:41:32;30.28;48.21
71514;DHT22;59335;46.652;21.272;2022-08-21T14:44:34;30.27;48.23
71514;DHT22;59335;46.652;21.272;2022-08-21T14:47:37;30.27;48.24
71514;DHT22;59335;46.652;21.272;2022-08-21T14:50:40;30.25;48.23
71514;DHT22;59335;46.652;21.272;2022-08-21T14:53:43;30.27;48.26
71514;DHT22;59335;46.652;21.272;2022-08-21T14:56:46;30.32;48.13
71514;DHT22;59335;46.652;21.272;2022-08-21T14:59:49;30.25;48.34
71514;DHT22;59335;46.652;21.272;2022-08-21T15:02:52;30.28;48.16
71514;DHT22;59335;46.652;21.272;2022-08-21T15:05:55;30.27;48.09
71514;DHT22;59335;46.652;21.272;2022-08-21T15:08:58;30.27;48.15
71514;DHT22;59335;46.652;21.272;2022-08-21T15:12:02;30.29;48.09
71514;DHT22;59335;46.652;21.272;2022-08-21T15:15:06;30.28;47.89
71514;DHT22;59335;46.652;21.272;2022-08-21T15:18:09;30.27;47.86
71514;DHT22;59335;46.652;21.272;2022-08-21T15:21:12;30.29;47.94
71514;DHT22;59335;46.652;21.272;2022-08-21T15:24:15;30.28;47.81
71514;DHT22;59335;46.652;21.272;2022-08-21T15:27:18;30.28;47.82
71514;DHT22;59335;46.652;21.272;2022-08-21T15:30:21;30.32;47.70
71514;DHT22;59335;46.652;21.272;2022-08-21T15:33:23;30.29;47.75
71514;DHT22;59335;46.652;21.272;2022-08-21T15:36:26;30.31;47.71
71514;DHT22;59335;46.652;21.272;2022-08-21T15:39:29;30.31;47.74
71514;DHT22;59335;46.652;21.272;2022-08-21T15:42:34;30.28;47.81
71514;DHT22;59335;46.652;21.272;2022-08-21T15:45:36;30.27;47.94
71514;DHT22;59335;46.652;21.272;2022-08-21T15:48:40;30.28;48.12
71514;DHT22;59335;46.652;21.272;2022-08-21T15:51:43;30.25;48.18
71514;DHT22;59335;46.652;21.272;2022-08-21T15:54:47;30.25;48.23
71514;DHT22;59335;46.652;21.272;2022-08-21T15:57:51;30.28;48.15
71514;DHT22;59335;46.652;21.272;2022-08-21T16:01:01;30.24;48.32
71514;DHT22;59335;46.652;21.272;2022-08-21T16:04:04;30.25;48.26
71514;DHT22;59335;46.652;21.272;2022-08-21T16:07:07;30.25;48.22
71514;DHT22;59335;46.652;21.272;2022-08-21T16:10:11;30.23;48.34
71514;DHT22;59335;46.652;21.272;2022-08-21T16:13:33;30.25;48.25
71514;DHT22;59335;46.652;21.272;2022-08-21T16:16:37;30.21;48.14
71514;DHT22;59335;46.652;21.272;2022-08-21T16:19:40;30.27;48.09
71514;DHT22;59335;46.652;21.272;2022-08-21T16:22:42;30.25;48.35
71514;DHT22;59335;46.652;21.272;2022-08-21T16:25:46;30.25;48.23
71514;DHT22;59335;46.652;21.272;2022-08-21T16:28:50;30.27;48.22
71514;DHT22;59335;46.652;21.272;2022-08-21T16:31:57;30.23;48.33
71514;DHT22;59335;46.652;21.272;2022-08-21T16:35:00;30.23;48.38
71514;DHT22;59335;46.652;21.272;2022-08-21T16:38:03;30.21;48.57
71514;DHT22;59335;46.652;21.272;2022-08-21T16:41:09;30.24;48.47
71514;DHT22;59335;46.652;21.272;2022-08-21T16:44:13;30.23;48.52
71514;DHT22;59335;46.652;21.272;2022-08-21T16:47:15;30.24;48.53
71514;DHT22;59335;46.652;21.272;2022-08-21T16:50:28;30.23;48.53
71514;DHT22;59335;46.652;21.272;2022-08-21T16:53:31;30.21;48.58
71514;DHT22;59335;46.652;21.272;2022-08-21T16:56:34;30.21;48.57
71514;DHT22;59335;46.652;21.272;2022-08-21T16:59:41;30.18;48.59
71514;DHT22;59335;46.652;21.272;2022-08-21T17:02:46;30.21;48.60
71514;DHT22;59335;46.652;21.272;2022-08-21T17:05:50;30.21;48.52
71514;DHT22;59335;46.652;21.272;2022-08-21T17:08:52;30.24;48.46
71514;DHT22;59335;46.652;21.272;2022-08-21T17:11:56;30.23;48.60
71514;DHT22;59335;46.652;21.272;2022-08-21T17:15:03;30.18;48.63
71514;DHT22;59335;46.652;21.272;2022-08-21T17:18:11;30.21;48.69
71514;DHT22;59335;46.652;21.272;2022-08-21T17:21:14;30.20;48.63
71514;DHT22;59335;46.652;21.272;2022-08-21T17:24:19;30.17;48.76
71514;DHT22;59335;46.652;21.272;2022-08-21T17:27:24;30.20;48.67
71514;DHT22;59335;46.652;21.272;2022-08-21T17:30:29;30.16;48.71
71514;DHT22;59335;46.652;21.272;2022-08-21T17:33:36;30.18;48.72
71514;DHT22;59335;46.652;21.272;2022-08-21T17:36:40;30.18;48.68
71514;DHT22;59335;46.652;21.272;2022-08-21T17:39:43;30.16;48.74
71514;DHT22;59335;46.652;21.272;2022-08-21T17:42:47;30.20;48.64
71514;DHT22;59335;46.652;21.272;2022-08-21T17:45:50;30.14;48.56
71514;DHT22;59335;46.652;21.272;2022-08-21T17:48:53;30.17;48.53
71514;DHT22;59335;46.652;21.272;2022-08-21T17:51:56;30.17;48.59
71514;DHT22;59335;46.652;21.272;2022-08-21T17:55:02;30.16;48.59
71514;DHT22;59335;46.652;21.272;2022-08-21T17:58:08;30.17;48.61
71514;DHT22;59335;46.652;21.272;2022-08-21T18:01:11;30.17;48.58
71514;DHT22;59335;46.652;21.272;2022-08-21T18:04:14;30.18;48.53
71514;DHT22;59335;46.652;21.272;2022-08-21T18:07:18;30.17;48.62
71514;DHT22;59335;46.652;21.272;2022-08-21T18:10:34;30.17;48.64
71514;DHT22;59335;46.652;21.272;2022-08-21T18:13:38;30.14;48.68
71514;DHT22;59335;46.652;21.272;2022-08-21T18:16:41;30.16;48.59
71514;DHT22;59335;46.652;21.272;2022-08-21T18:19:44;30.13;48.55
71514;DHT22;59335;46.652;21.272;2022-08-21T18:22:50;30.13;48.53
71514;DHT22;59335;46.652;21.272;2022-08-21T18:26:00;30.14;48.59
71514;DHT22;59335;46.652;21.272;2022-08-21T18:29:09;30.13;48.63
71514;DHT22;59335;46.652;21.272;2022-08-21T18:32:32;30.16;48.52
71514;DHT22;59335;46.652;21.272;2022-08-21T18:35:54;30.13;48.59
71514;DHT22;59335;46.652;21.272;2022-08-21T18:39:20;30.16;48.51
71514;DHT22;59335;46.652;21.272;2022-08-21T18:43:00;30.14;48.58
71514;DHT22;59335;46.652;21.272;2022-08-21T18:46:05;30.14;48.60
71514;DHT22;59335;46.652;21.272;2022-08-21T18:49:28;30.11;48.64
71514;DHT22;59335;46.652;21.272;2022-08-21T18:52:31;30.11;48.61
71514;DHT22;59335;46.652;21.272;2022-08-21T18:55:35;30.11;48.74
71514;DHT22;59335;46.652;21.272;2022-08-21T18:58:43;30.10;48.65
71514;DHT22;59335;46.652;21.272;2022-08-21T19:01:47;30.14;48.71
71514;DHT22;59335;46.652;21.272;2022-08-21T19:04:51;30.11;48.69
71514;DHT22;59335;46.652;21.272;2022-08-21T19:07:56;30.08;48.74
71514;DHT22;59335;46.652;21.272;2022-08-21T19:11:00;30.10;48.67
71514;DHT22;59335;46.652;21.272;2022-08-21T19:14:08;30.10;48.68
71514;DHT22;59335;46.652;21.272;2022-08-21T19:17:17;30.10;48.66
71514;DHT22;59335;46.652;21.272;2022-08-21T19:20:25;30.08;48.73
71514;DHT22;59335;46.652;21.272;2022-08-21T19:23:28;30.08;48.68
71514;DHT22;59335;46.652;21.272;2022-08-21T19:26:36;30.08;48.70
71514;DHT22;59335;46.652;21.272;2022-08-21T19:29:39;30.07;48.67
71514;DHT22;59335;46.652;21.272;2022-08-21T19:32:44;30.08;48.64
71514;DHT22;59335;46.652;21.272;2022-08-21T19:35:48;30.10;48.56
71514;DHT22;59335;46.652;21.272;2022-08-21T19:38:53;30.13;48.54
71514;DHT22;59335;46.652;21.272;2022-08-21T19:41:57;30.11;48.49
71514;DHT22;59335;46.652;21.272;2022-08-21T19:45:03;30.08;48.54
71514;DHT22;59335;46.652;21.272;2022-08-21T19:48:06;30.07;48.53
71514;DHT22;59335;46.652;21.272;2022-08-21T19:51:09;30.08;48.55
71514;DHT22;59335;46.652;21.272;2022-08-21T19:54:28;30.06;48.55
71514;DHT22;59335;46.652;21.272;2022-08-21T19:57:31;30.08;48.55
71514;DHT22;59335;46.652;21.272;2022-08-21T20:00:34;30.07;48.79
71514;DHT22;59335;46.652;21.272;2022-08-21T20:03:37;30.10;48.71
71514;DHT22;59335;46.652;21.272;2022-08-21T20:06:44;30.08;48.61
71514;DHT22;59335;46.652;21.272;2022-08-21T20:09:48;30.07;48.58
71514;DHT22;59335;46.652;21.272;2022-08-21T20:12:51;30.06;48.58
71514;DHT22;59335;46.652;21.272;2022-08-21T20:15:54;30.07;48.71
71514;DHT22;59335;46.652;21.272;2022-08-21T20:18:57;30.06;48.64
71514;DHT22;59335;46.652;21.272;2022-08-21T20:22:02;30.08;48.58
71514;DHT22;59335;46.652;21.272;2022-08-21T20:25:07;30.04;48.52
71514;DHT22;59335;46.652;21.272;2022-08-21T20:28:12;30.07;48.59
71514;DHT22;59335;46.652;21.272;2022-08-21T20:31:15;30.10;48.54
71514;DHT22;59335;46.652;21.272;2022-08-21T20:34:21;30.07;48.55
71514;DHT22;59335;46.652;21.272;2022-08-21T20:37:26;30.06;48.61
71514;DHT22;59335;46.652;21.272;2022-08-21T20:40:38;30.08;48.62
71514;DHT22;59335;46.652;21.272;2022-08-21T20:43:41;30.06;48.66
71514;DHT22;59335;46.652;21.272;2022-08-21T20:46:44;30.06;48.63
71514;DHT22;59335;46.652;21.272;2022-08-21T20:49:52;30.08;48.57
71514;DHT22;59335;46.652;21.272;2022-08-21T20:53:01;30.07;48.50
71514;DHT22;59335;46.652;21.272;2022-08-21T20:56:08;30.04;48.57
71514;DHT22;59335;46.652;21.272;2022-08-21T21:06:00;30.08;48.58
71514;DHT22;59335;46.652;21.272;2022-08-21T21:09:10;30.08;48.59
71514;DHT22;59335;46.652;21.272;2022-08-21T21:12:21;30.06;48.59
71514;DHT22;59335;46.652;21.272;2022-08-21T21:15:31;30.04;48.62
71514;DHT22;59335;46.652;21.272;2022-08-21T21:21:48;30.04;48.63
71514;DHT22;59335;46.652;21.272;2022-08-21T21:28:56;30.04;48.52
71514;DHT22;59335;46.652;21.272;2022-08-21T21:32:03;30.03;48.51
71514;DHT22;59335;46.652;21.272;2022-08-21T21:35:07;30.07;48.43
71514;DHT22;59335;46.652;21.272;2022-08-21T21:38:35;30.06;48.43
71514;DHT22;59335;46.652;21.272;2022-08-21T21:45:24;30.04;48.42
71514;DHT22;59335;46.652;21.272;2022-08-21T21:48:55;30.08;48.33
71514;DHT22;59335;46.652;21.272;2022-08-21T22:02:03;30.06;48.36
71514;DHT22;59335;46.652;21.272;2022-08-21T22:12:36;30.08;48.30
71514;DHT22;59335;46.652;21.272;2022-08-21T22:15:55;30.03;48.30
71514;DHT22;59335;46.652;21.272;2022-08-21T22:19:06;30.03;48.35
71514;DHT22;59335;46.652;21.272;2022-08-21T22:22:20;30.03;48.31
71514;DHT22;59335;46.652;21.272;2022-08-21T22:25:32;30.03;48.30
71514;DHT22;59335;46.652;21.272;2022-08-21T22:28:39;30.01;48.33
71514;DHT22;59335;46.652;21.272;2022-08-21T22:31:44;30.04;48.28
71514;DHT22;59335;46.652;21.272;2022-08-21T22:35:12;30.03;48.31
71514;DHT22;59335;46.652;21.272;2022-08-21T22:41:29;30.04;48.32
71514;DHT22;59335;46.652;21.272;2022-08-21T22:44:48;30.01;48.34
71514;DHT22;59335;46.652;21.272;2022-08-21T22:47:53;30.03;48.27
71514;DHT22;59335;46.652;21.272;2022-08-21T22:51:01;30.01;48.25
71514;DHT22;59335;46.652;21.272;2022-08-21T22:54:08;30.00;48.27
71514;DHT22;59335;46.652;21.272;2022-08-21T22:57:31;30.04;48.26
71514;DHT22;59335;46.652;21.272;2022-08-21T23:03:52;30.01;48.27
71514;DHT22;59335;46.652;21.272;2022-08-21T23:07:00;30.01;48.24
71514;DHT22;59335;46.652;21.272;2022-08-21T23:10:17;30.03;48.23
71514;DHT22;59335;46.652;21.272;2022-08-21T23:13:20;30.04;48.20
71514;DHT22;59335;46.652;21.272;2022-08-21T23:19:52;30.03;48.24
71514;DHT22;59335;46.652;21.272;2022-08-21T23:23:11;30.03;48.23
71514;DHT22;59335;46.652;21.272;2022-08-21T23:26:26;29.97;48.30
71514;DHT22;59335;46.652;21.272;2022-08-21T23:33:05;29.97;48.42
71514;DHT22;59335;46.652;21.272;2022-08-21T23:50:17;29.99;48.37
71514;DHT22;59335;46.652;21.272;2022-08-21T23:56:55;29.96;48.42
